ADDS METAR Data INFO
IDs: Format: Raw Decoded Include TAF

Data at: 1005 UTC 12 Dec 2017

KINT 120954Z AUTO 00000KT 10SM CLR 03/M01 A2974 RMK AO2 SLP069 T00331006
KINT 120854Z AUTO 23003KT 10SM CLR 04/M01 A2975 RMK AO2 SLP074 T00391006 56025
KINT 120754Z AUTO 22004KT 10SM CLR 04/M01 A2977 RMK AO2 SLP081 T00441006
KINT 120654Z AUTO VRB05KT 10SM CLR 05/M01 A2980 RMK AO2 SLP091 T00501006
KINT 120554Z AUTO 21004KT 10SM CLR 06/M01 A2983 RMK AO2 SLP101 T00561011 10072 20050 56031
KINT 120454Z AUTO 19006KT 10SM CLR 06/M01 A2985 RMK AO2 SLP110 T00561011 401061039
KINT 120354Z AUTO 19004KT 10SM CLR 06/M02 A2989 RMK AO2 SLP123 T00561017
KINT 120254Z AUTO 19005KT 10SM CLR 06/M02 A2992 RMK AO2 SLP135 T00611022 58015
KINT 120154Z 18003KT 10SM CLR 05/M02 A2994 RMK AO2 SLP142 T00501017
KINT 120054Z 00000KT 10SM CLR 07/M02 A2996 RMK AO2 SLP150 T00671017
KINT 112354Z 17005KT 10SM CLR 07/M02 A2997 RMK AO2 SLP152 T00721017 10106 20072 56007
KINT 112254Z 17003KT 10SM CLR 07/M02 A2997 RMK AO2 SLP151 T00721017
KINT 112154Z 22003KT 10SM CLR 10/M02 A2998 RMK AO2 SLP155 T01001022
KINT 112054Z 21005KT 10SM CLR 11/M03 A2999 RMK AO2 SLP157 T01061028 58023
KINT 111954Z 18004KT 10SM CLR 11/M03 A3001 RMK AO2 SLP165 T01061028
KINT 111854Z VRB04KT 10SM CLR 09/M03 A3004 RMK AO2 SLP175 T00941028
KINT 111754Z 00000KT 10SM CLR 09/M02 A3006 RMK AO2 SLP182 T00891022 10089 21039 58024
KINT 111654Z 27004KT 10SM CLR 07/M03 A3008 RMK AO2 SLP190 T00721033
KINT 111554Z 22004KT 10SM CLR 06/M04 A3013 RMK AO2 SLP206 T00561039
KINT 111454Z VRB03KT 10SM CLR 03/M03 A3013 RMK AO2 SLP209 T00281033 50007
KINT 111354Z 00000KT 10SM CLR M01/M04 A3013 RMK AO2 SLP210 T10111044
KINT 111254Z 00000KT 10SM CLR M04/M06 A3013 RMK AO2 SLP208 T10391061
KINT 111154Z 00000KT 10SM CLR M03/M06 A3011 RMK AO2 SLP203 T10331061 11006 21039 53004
KINT 111054Z AUTO 23003KT 10SM CLR M01/M05 A3010 RMK AO2 SLP199 T10111050
KINT 110954Z AUTO 00000KT 10SM CLR M02/M06 A3010 RMK AO2 SLP198 T10221056
KINT 110854Z AUTO 21003KT 10SM CLR M02/M05 A3010 RMK AO2 SLP198 T10171050 58007
KINT 110754Z AUTO 00000KT 10SM CLR M03/M05 A3011 RMK AO2 SLP203 T10281050
KINT 110654Z 00000KT 10SM SCT110 M03/M06 A3011 RMK AO2 SLP203 T10281056
KINT 110554Z 14003KT 10SM CLR M03/M05 A3012 RMK AO2 SLP205 T10281050 10022 21028 50001
KINT 110454Z 00000KT 10SM CLR 00/M05 A3014 RMK AO2 SLP211 T00001050 400391056
KINT 110354Z 00000KT 10SM CLR 00/M05 A3012 RMK AO2 SLP206 T00001050
KINT 110254Z 00000KT 10SM CLR M01/M05 A3012 RMK AO2 SLP204 T10111050 58000
KINT 110154Z 00000KT 10SM CLR 01/M05 A3013 RMK AO2 SLP208 T00111050
KINT 110054Z 22005KT 10SM CLR 02/M05 A3012 RMK AO2 SLP206 T00171050
KINT 102354Z 22004KT 10SM CLR 02/M06 A3012 RMK AO2 SLP205 T00221056 10039 20022 55001
KINT 102254Z 21004KT 10SM CLR 03/M06 A3011 RMK AO2 SLP203 T00281061